createdAt,value
2018-07-31T00:02:27.046Z,2.58
2018-07-31T00:04:56.212Z,2.40
2018-07-31T00:07:25.453Z,2.60
2018-07-31T00:09:54.908Z,2.45
2018-07-31T00:12:24.213Z,2.58
2018-07-31T00:14:53.471Z,2.42
2018-07-31T00:17:22.697Z,2.52
2018-07-31T00:19:51.763Z,2.40
2018-07-31T00:22:21.050Z,2.37
2018-07-31T00:24:50.129Z,2.55
2018-07-31T00:27:19.401Z,2.62
2018-07-31T00:29:48.563Z,2.62
2018-07-31T00:32:17.902Z,2.75
2018-07-31T00:34:47.005Z,2.40
2018-07-31T00:37:16.037Z,2.37
2018-07-31T00:39:46.037Z,2.72
2018-07-31T00:42:15.151Z,2.72
2018-07-31T00:44:44.279Z,2.60
2018-07-31T00:47:13.453Z,2.75
2018-07-31T00:49:42.580Z,2.60
2018-07-31T00:52:11.964Z,2.60
2018-07-31T00:54:42.060Z,2.60
2018-07-31T00:57:11.352Z,2.50
2018-07-31T00:59:40.558Z,2.50
2018-07-31T01:02:09.830Z,2.58
2018-07-31T01:04:39.112Z,2.72
2018-07-31T01:07:08.245Z,2.62
2018-07-31T01:09:37.440Z,2.60
2018-07-31T01:12:06.713Z,2.47
2018-07-31T01:14:35.970Z,2.60
2018-07-31T01:17:05.045Z,2.40
2018-07-31T01:19:34.306Z,2.52
2018-07-31T01:22:03.399Z,2.50
2018-07-31T01:24:32.681Z,2.62
2018-07-31T01:27:01.930Z,2.70
2018-07-31T01:29:31.414Z,2.60
2018-07-31T01:32:00.621Z,2.52
2018-07-31T01:34:29.892Z,2.50
2018-07-31T01:36:59.054Z,2.58
2018-07-31T01:39:28.093Z,2.42
2018-07-31T01:41:57.417Z,2.35
2018-07-31T01:44:26.769Z,2.67
2018-07-31T01:46:56.112Z,2.40
2018-07-31T01:49:25.303Z,2.90
2018-07-31T01:51:54.570Z,2.52
2018-07-31T01:54:23.598Z,2.30
2018-07-31T01:56:52.970Z,2.45
2018-07-31T01:59:22.158Z,2.20
2018-07-31T02:01:51.479Z,2.20
2018-07-31T02:04:20.673Z,2.17
2018-07-31T02:06:49.913Z,2.47
2018-07-31T02:09:19.299Z,2.47
2018-07-31T02:11:48.470Z,2.58
2018-07-31T02:14:17.904Z,2.50
2018-07-31T02:16:47.149Z,2.33
2018-07-31T02:19:16.370Z,2.47
2018-07-31T02:21:45.467Z,2.80
2018-07-31T02:24:14.723Z,2.40
2018-07-31T02:26:44.070Z,2.33
2018-07-31T02:29:13.403Z,2.47
2018-07-31T02:31:42.765Z,2.65
2018-07-31T02:34:12.063Z,2.22
2018-07-31T02:36:41.284Z,2.30
2018-07-31T02:39:10.406Z,2.50
2018-07-31T02:41:39.652Z,2.40
2018-07-31T02:44:08.863Z,2.37
2018-07-31T02:46:38.051Z,2.58
2018-07-31T02:49:07.379Z,2.52
2018-07-31T02:51:36.606Z,2.50
2018-07-31T02:54:05.890Z,2.60
2018-07-31T02:56:35.078Z,2.40
2018-07-31T02:59:04.211Z,2.35
2018-07-31T03:01:33.477Z,2.50
2018-07-31T03:04:02.752Z,2.22
2018-07-31T03:06:31.852Z,2.33
2018-07-31T03:09:01.291Z,2.50
2018-07-31T03:11:30.541Z,2.30
2018-07-31T03:13:59.679Z,2.35
2018-07-31T03:16:28.850Z,2.20
2018-07-31T03:18:58.113Z,2.45
2018-07-31T03:21:27.477Z,2.40
2018-07-31T03:23:56.966Z,2.50
2018-07-31T03:26:26.248Z,2.40
2018-07-31T03:28:55.532Z,2.50
2018-07-31T03:31:24.681Z,2.20
2018-07-31T03:33:53.814Z,2.22
2018-07-31T03:36:22.953Z,2.33
2018-07-31T03:38:52.143Z,2.25
2018-07-31T03:41:21.392Z,2.60
2018-07-31T03:43:50.483Z,2.50
2018-07-31T03:46:19.585Z,2.42
2018-07-31T03:48:48.599Z,2.20
2018-07-31T03:51:17.881Z,2.40
2018-07-31T03:53:46.978Z,2.30
2018-07-31T03:56:16.307Z,1.98
2018-07-31T03:58:45.530Z,2.35
2018-07-31T04:01:14.763Z,2.50
2018-07-31T04:03:43.997Z,2.45
2018-07-31T04:06:13.286Z,2.35
2018-07-31T04:08:42.697Z,2.30
2018-07-31T04:11:11.965Z,2.40
2018-07-31T04:13:41.145Z,2.60
2018-07-31T04:16:10.355Z,2.37
2018-07-31T04:18:39.460Z,2.30
2018-07-31T04:21:08.782Z,2.30
2018-07-31T04:23:37.917Z,2.45
2018-07-31T04:26:06.914Z,2.80
2018-07-31T04:28:35.953Z,2.60
2018-07-31T04:31:05.109Z,2.08
2018-07-31T04:33:34.226Z,2.52
2018-07-31T04:36:03.669Z,2.52
2018-07-31T04:38:32.729Z,2.42
2018-07-31T04:41:01.894Z,2.37
2018-07-31T04:43:30.932Z,2.50
2018-07-31T04:46:00.129Z,2.20
2018-07-31T04:48:29.227Z,2.30
2018-07-31T04:50:58.374Z,2.50
2018-07-31T04:53:27.481Z,2.55
2018-07-31T04:55:56.646Z,2.20
2018-07-31T04:58:25.925Z,2.40
2018-07-31T05:00:54.967Z,2.40
2018-07-31T05:03:24.054Z,2.40
2018-07-31T05:05:53.074Z,2.30
2018-07-31T05:08:22.255Z,2.10
2018-07-31T05:10:51.313Z,2.27
2018-07-31T05:13:20.264Z,2.30
2018-07-31T05:15:49.409Z,2.33
2018-07-31T05:18:18.422Z,2.10
2018-07-31T05:20:47.544Z,2.27
2018-07-31T05:23:16.591Z,2.35
2018-07-31T05:25:45.693Z,2.35
2018-07-31T05:28:14.837Z,2.05
2018-07-31T05:30:43.984Z,2.10
2018-07-31T05:33:13.085Z,2.25
2018-07-31T05:35:42.230Z,2.25
2018-07-31T05:38:11.449Z,2.50
2018-07-31T05:40:40.553Z,2.25
2018-07-31T05:43:09.726Z,2.62
2018-07-31T05:45:38.872Z,4.87
2018-07-31T05:48:07.949Z,6.12
2018-07-31T05:50:37.237Z,5.90
2018-07-31T05:53:06.376Z,6.28
2018-07-31T05:55:35.523Z,6.33
2018-07-31T05:58:04.760Z,6.42
2018-07-31T06:00:34.047Z,6.60
2018-07-31T06:03:03.145Z,6.62
2018-07-31T06:05:32.216Z,7.22
2018-07-31T06:08:01.455Z,6.53
2018-07-31T06:10:30.618Z,7.87
2018-07-31T06:12:59.913Z,6.85
2018-07-31T06:15:29.124Z,6.22
2018-07-31T06:17:58.229Z,7.12
2018-07-31T06:20:27.424Z,9.48
2018-07-31T06:22:56.528Z,6.15
2018-07-31T06:25:25.691Z,6.10
2018-07-31T06:27:54.900Z,7.85
2018-07-31T06:30:23.983Z,6.40
2018-07-31T06:32:53.161Z,7.17
2018-07-31T06:35:22.316Z,9.20
2018-07-31T06:37:51.517Z,9.28
2018-07-31T06:40:20.669Z,6.78
2018-07-31T06:42:49.744Z,6.45
2018-07-31T06:45:18.959Z,7.05
2018-07-31T06:47:48.164Z,7.40
2018-07-31T06:50:17.446Z,7.28
2018-07-31T06:52:46.884Z,7.33
2018-07-31T06:55:16.086Z,7.03
2018-07-31T06:57:45.191Z,7.05
2018-07-31T07:00:14.253Z,8.50
2018-07-31T07:02:43.495Z,9.33
2018-07-31T07:05:12.741Z,10.50
2018-07-31T07:07:41.903Z,8.85
2018-07-31T07:10:11.105Z,7.45
2018-07-31T07:12:40.367Z,7.55
2018-07-31T07:15:10.519Z,7.42
2018-07-31T07:17:39.607Z,7.42
2018-07-31T07:20:08.732Z,7.35
2018-07-31T07:22:38.956Z,7.62
2018-07-31T07:25:08.185Z,7.67
2018-07-31T07:27:38.043Z,7.22
2018-07-31T07:30:07.878Z,6.78
2018-07-31T07:32:36.926Z,9.60
2018-07-31T07:35:06.096Z,8.35
2018-07-31T07:37:35.280Z,7.33
2018-07-31T07:40:04.569Z,7.28
2018-07-31T07:42:33.800Z,7.75
2018-07-31T07:45:03.353Z,7.20
2018-07-31T07:47:32.556Z,7.53
2018-07-31T07:50:01.758Z,7.70
2018-07-31T07:52:30.899Z,8.15
2018-07-31T07:55:00.060Z,7.70
2018-07-31T07:57:29.323Z,7.30
2018-07-31T07:59:58.707Z,10.88
2018-07-31T08:02:27.915Z,8.08
2018-07-31T08:04:57.084Z,7.47
2018-07-31T08:07:26.313Z,7.50
2018-07-31T08:09:55.504Z,8.10
2018-07-31T08:12:24.653Z,8.63
2018-07-31T08:14:53.892Z,7.50
2018-07-31T08:17:23.247Z,7.53
2018-07-31T08:19:52.453Z,7.65
2018-07-31T08:22:21.602Z,7.60
2018-07-31T08:24:50.858Z,8.18
2018-07-31T08:27:19.946Z,7.83
2018-07-31T08:29:49.036Z,8.75
2018-07-31T08:32:18.289Z,8.28
2018-07-31T08:34:47.445Z,8.65
2018-07-31T08:37:16.580Z,8.43
2018-07-31T08:39:45.795Z,8.15
2018-07-31T08:42:14.941Z,8.03
2018-07-31T08:44:44.243Z,8.00
2018-07-31T08:47:13.381Z,7.97
2018-07-31T08:49:42.540Z,10.60
2018-07-31T08:52:11.698Z,10.78
2018-07-31T08:54:40.909Z,7.87
2018-07-31T08:57:10.035Z,8.80
2018-07-31T08:59:39.197Z,7.95
2018-07-31T09:02:08.481Z,7.72
2018-07-31T09:04:37.632Z,7.85
2018-07-31T09:07:06.935Z,8.55
2018-07-31T09:09:36.018Z,8.50
2018-07-31T09:12:05.173Z,8.30
2018-07-31T09:14:34.382Z,7.83
2018-07-31T09:17:03.505Z,7.72
2018-07-31T09:19:32.605Z,7.62
2018-07-31T09:22:01.891Z,8.73
2018-07-31T09:24:31.096Z,8.05
2018-07-31T09:27:00.225Z,7.50
2018-07-31T09:29:29.439Z,8.15
2018-07-31T09:31:58.660Z,7.97
2018-07-31T09:34:28.058Z,8.33
2018-07-31T09:36:57.287Z,8.25
2018-07-31T09:39:26.351Z,8.30
2018-07-31T09:41:55.606Z,7.95
2018-07-31T09:44:25.003Z,9.33
2018-07-31T09:46:54.750Z,8.15
2018-07-31T09:49:23.933Z,8.00
2018-07-31T09:51:53.044Z,9.13
2018-07-31T09:54:22.313Z,9.18
2018-07-31T09:56:51.562Z,8.00
2018-07-31T09:59:20.652Z,8.23
2018-07-31T10:01:49.815Z,7.62
2018-07-31T10:04:19.018Z,8.15
2018-07-31T10:06:48.151Z,10.28
2018-07-31T10:09:17.313Z,9.98
2018-07-31T10:11:46.423Z,7.87
2018-07-31T10:14:15.376Z,7.58
2018-07-31T10:16:44.607Z,10.88
2018-07-31T10:19:13.707Z,8.63
2018-07-31T10:21:42.892Z,11.12
2018-07-31T10:24:12.072Z,8.15
2018-07-31T10:26:41.242Z,8.33
2018-07-31T10:29:12.097Z,8.23
2018-07-31T10:31:41.227Z,8.68
2018-07-31T10:34:10.437Z,8.43
2018-07-31T10:36:39.557Z,8.18
2018-07-31T10:39:09.259Z,8.10
2018-07-31T10:41:38.474Z,8.13
2018-07-31T10:44:07.623Z,8.38
2018-07-31T10:46:36.655Z,7.05
2018-07-31T10:49:05.762Z,7.72
2018-07-31T10:51:34.847Z,10.75
2018-07-31T10:54:04.018Z,7.83
2018-07-31T10:56:33.051Z,7.90
2018-07-31T10:59:02.265Z,8.28
2018-07-31T11:01:31.407Z,8.80
2018-07-31T11:04:00.638Z,9.28
2018-07-31T11:06:29.805Z,7.67
2018-07-31T11:08:58.999Z,7.78
2018-07-31T11:11:28.275Z,7.47
2018-07-31T11:13:57.407Z,8.33
2018-07-31T11:16:26.558Z,8.25
2018-07-31T11:18:55.957Z,9.75
2018-07-31T11:21:25.194Z,9.85
2018-07-31T11:23:54.353Z,7.72
2018-07-31T11:26:23.452Z,10.50
2018-07-31T11:28:52.640Z,8.23
2018-07-31T11:31:21.768Z,8.38
2018-07-31T11:33:50.941Z,8.10
2018-07-31T11:36:20.134Z,8.70
2018-07-31T11:38:49.210Z,9.18
2018-07-31T11:41:18.432Z,8.55
2018-07-31T11:43:47.786Z,8.25
2018-07-31T11:46:17.021Z,9.45
2018-07-31T11:48:46.282Z,8.38
2018-07-31T11:51:15.491Z,10.53
2018-07-31T11:53:44.525Z,8.48
2018-07-31T11:56:13.663Z,8.75
2018-07-31T11:58:42.839Z,9.10
2018-07-31T12:01:12.088Z,9.60
2018-07-31T12:03:41.202Z,10.03
2018-07-31T12:06:10.554Z,8.20
2018-07-31T12:08:39.716Z,7.85
2018-07-31T12:11:10.901Z,8.35
2018-07-31T12:13:40.063Z,10.50
2018-07-31T12:16:09.042Z,9.43
2018-07-31T12:18:38.327Z,8.85
2018-07-31T12:21:07.381Z,8.43
2018-07-31T12:23:36.472Z,8.38
2018-07-31T12:26:05.789Z,10.30
2018-07-31T12:28:34.968Z,8.78
2018-07-31T12:31:04.170Z,8.73
2018-07-31T12:33:33.432Z,8.80
2018-07-31T12:36:02.678Z,11.83
2018-07-31T12:38:31.807Z,8.78
2018-07-31T12:41:00.896Z,9.58
2018-07-31T12:43:30.028Z,9.03
2018-07-31T12:45:59.166Z,8.48
2018-07-31T12:48:28.526Z,8.80
2018-07-31T12:50:57.743Z,9.15
2018-07-31T12:53:26.849Z,11.05
2018-07-31T12:55:56.085Z,8.75
2018-07-31T12:58:25.133Z,8.70
2018-07-31T13:00:54.280Z,8.95
2018-07-31T13:03:23.348Z,11.45
2018-07-31T13:05:52.457Z,8.18
2018-07-31T13:08:21.586Z,11.33
2018-07-31T13:10:50.842Z,9.00
2018-07-31T13:13:19.986Z,7.83
2018-07-31T13:15:48.858Z,9.50
2018-07-31T13:18:18.022Z,9.43
2018-07-31T13:20:47.209Z,8.50
2018-07-31T13:23:16.288Z,9.25
2018-07-31T13:25:45.415Z,7.35
2018-07-31T13:28:15.215Z,7.28
2018-07-31T13:30:44.540Z,8.00
2018-07-31T13:33:13.827Z,7.60
2018-07-31T13:35:43.087Z,6.97
2018-07-31T13:38:12.259Z,12.35
2018-07-31T13:40:41.452Z,9.48
2018-07-31T13:43:10.655Z,11.90
2018-07-31T13:45:39.829Z,7.70
2018-07-31T13:48:08.859Z,7.28
2018-07-31T13:50:38.562Z,6.50
2018-07-31T13:53:08.177Z,7.05
2018-07-31T13:55:37.275Z,6.92
2018-07-31T13:58:06.908Z,6.60
2018-07-31T14:00:36.124Z,7.15
2018-07-31T14:03:05.228Z,6.42
2018-07-31T14:05:34.338Z,9.15
2018-07-31T14:08:03.455Z,6.47
2018-07-31T14:10:32.572Z,6.55
2018-07-31T14:13:01.784Z,5.90
2018-07-31T14:15:30.879Z,7.67
2018-07-31T14:17:59.942Z,6.08
2018-07-31T14:20:29.501Z,7.53
2018-07-31T14:22:58.669Z,6.25
2018-07-31T14:25:27.917Z,7.42
2018-07-31T14:27:57.292Z,6.22
2018-07-31T14:30:26.667Z,5.65
2018-07-31T14:32:55.925Z,6.30
2018-07-31T14:35:25.162Z,8.95
2018-07-31T14:37:54.354Z,7.30
2018-07-31T14:40:23.470Z,9.95
2018-07-31T14:42:52.634Z,8.23
2018-07-31T14:45:21.843Z,8.73
2018-07-31T14:47:50.956Z,7.70
2018-07-31T14:50:20.116Z,5.67
2018-07-31T14:52:49.275Z,6.35
2018-07-31T14:55:18.624Z,9.25
2018-07-31T14:57:47.850Z,6.03
2018-07-31T15:00:16.971Z,5.72
2018-07-31T15:02:46.171Z,6.83
2018-07-31T15:05:15.328Z,11.57
2018-07-31T15:07:44.732Z,9.38
2018-07-31T15:10:13.678Z,8.30
2018-07-31T15:12:42.806Z,5.20
2018-07-31T15:15:11.920Z,7.87
2018-07-31T15:17:41.161Z,5.42
2018-07-31T15:20:10.405Z,6.75
2018-07-31T15:22:41.389Z,8.78
2018-07-31T15:25:10.501Z,6.60
2018-07-31T15:27:39.669Z,5.22
2018-07-31T15:30:08.885Z,5.90
2018-07-31T15:32:38.120Z,11.12
2018-07-31T15:35:07.508Z,5.87
2018-07-31T15:37:36.607Z,7.60
2018-07-31T15:40:05.947Z,5.25
2018-07-31T15:42:35.031Z,5.85
2018-07-31T15:45:04.150Z,6.33
2018-07-31T15:47:33.199Z,5.08
2018-07-31T15:50:02.363Z,7.22
2018-07-31T15:52:31.667Z,5.12
2018-07-31T15:55:00.706Z,7.50
2018-07-31T15:57:29.794Z,5.17
2018-07-31T15:59:58.934Z,5.47
2018-07-31T16:02:28.313Z,6.28
2018-07-31T16:04:57.440Z,5.17
2018-07-31T16:07:26.707Z,5.50
2018-07-31T16:09:55.919Z,6.10
2018-07-31T16:12:25.159Z,7.58
2018-07-31T16:14:54.355Z,7.30
2018-07-31T16:17:23.679Z,5.40
2018-07-31T16:19:52.815Z,7.08
2018-07-31T16:22:21.947Z,7.08
2018-07-31T16:24:51.429Z,12.65
2018-07-31T16:27:20.638Z,10.48
2018-07-31T16:29:49.757Z,5.75
2018-07-31T16:32:18.986Z,3.77
2018-07-31T16:34:48.261Z,4.62
2018-07-31T16:37:17.428Z,6.37
2018-07-31T16:39:46.615Z,3.60
2018-07-31T16:42:15.859Z,7.08
2018-07-31T16:44:45.089Z,3.12
2018-07-31T16:47:14.227Z,5.15
2018-07-31T16:49:43.243Z,6.75
2018-07-31T16:52:12.409Z,4.30
2018-07-31T16:54:41.681Z,3.67
2018-07-31T16:57:10.908Z,3.27
2018-07-31T16:59:40.268Z,5.87
2018-07-31T17:02:09.673Z,5.12
2018-07-31T17:04:38.988Z,3.60
2018-07-31T17:07:08.185Z,5.62
2018-07-31T17:09:37.860Z,3.42
2018-07-31T17:12:06.989Z,4.15
2018-07-31T17:14:36.123Z,5.95
2018-07-31T17:17:05.450Z,4.22
2018-07-31T17:19:34.621Z,4.60
2018-07-31T17:22:03.864Z,3.95
2018-07-31T17:24:32.990Z,4.87
2018-07-31T17:27:02.148Z,3.33
2018-07-31T17:29:31.489Z,4.65
2018-07-31T17:32:00.709Z,4.12
2018-07-31T17:34:29.927Z,5.50
2018-07-31T17:36:59.238Z,6.20
2018-07-31T17:39:28.346Z,4.05
2018-07-31T17:41:57.607Z,4.95
2018-07-31T17:44:26.790Z,4.78
2018-07-31T17:46:56.080Z,4.50
2018-07-31T17:49:25.305Z,3.47
2018-07-31T17:51:54.469Z,3.60
2018-07-31T17:54:23.855Z,2.92
2018-07-31T17:56:53.158Z,3.90
2018-07-31T17:59:22.521Z,3.22
2018-07-31T18:01:51.599Z,3.12
2018-07-31T18:04:20.967Z,2.70
2018-07-31T18:06:50.227Z,2.98
2018-07-31T18:09:19.608Z,3.65
2018-07-31T18:11:48.697Z,3.17
2018-07-31T18:14:17.860Z,4.15
2018-07-31T18:16:47.071Z,3.08
2018-07-31T18:19:16.290Z,3.37
2018-07-31T18:21:45.448Z,3.92
2018-07-31T18:24:14.783Z,3.85
2018-07-31T18:26:43.872Z,2.80
2018-07-31T18:29:13.139Z,3.47
2018-07-31T18:31:42.247Z,3.47
2018-07-31T18:34:11.451Z,2.95
2018-07-31T18:36:40.505Z,3.05
2018-07-31T18:39:12.132Z,3.33
2018-07-31T18:41:41.894Z,2.80
2018-07-31T18:44:11.690Z,2.90
2018-07-31T18:46:42.257Z,2.77
2018-07-31T18:49:11.487Z,2.67
2018-07-31T18:51:40.585Z,3.05
2018-07-31T18:54:09.837Z,3.45
2018-07-31T18:56:38.991Z,2.60
2018-07-31T18:59:08.331Z,3.08
2018-07-31T19:01:37.674Z,3.02
2018-07-31T19:04:07.254Z,2.77
2018-07-31T19:06:36.467Z,2.55
2018-07-31T19:09:10.507Z,2.60
2018-07-31T19:11:40.248Z,4.87
2018-07-31T19:14:09.616Z,2.95
2018-07-31T19:16:38.905Z,2.70
2018-07-31T19:19:08.001Z,2.98
2018-07-31T19:21:37.411Z,3.83
2018-07-31T19:24:06.772Z,2.75
2018-07-31T19:26:36.102Z,2.52
2018-07-31T19:29:05.890Z,2.72
2018-07-31T19:31:35.086Z,2.60
2018-07-31T19:34:04.220Z,2.90
2018-07-31T19:36:33.491Z,2.75
2018-07-31T19:39:02.781Z,2.87
2018-07-31T19:41:32.011Z,2.98
2018-07-31T19:44:01.347Z,2.70
2018-07-31T19:46:30.456Z,2.62
2018-07-31T19:48:59.620Z,2.55
2018-07-31T19:51:28.770Z,2.45
2018-07-31T19:53:58.147Z,3.42
2018-07-31T19:56:27.308Z,2.70
2018-07-31T19:58:56.448Z,2.33
2018-07-31T20:01:25.589Z,2.20
2018-07-31T20:03:54.793Z,3.35
2018-07-31T20:06:24.007Z,2.30
2018-07-31T20:08:53.562Z,2.70
2018-07-31T20:11:22.700Z,2.72
2018-07-31T20:13:51.917Z,2.17
2018-07-31T20:16:21.074Z,2.37
2018-07-31T20:18:50.189Z,2.35
2018-07-31T20:21:19.357Z,2.55
2018-07-31T20:23:48.722Z,2.40
2018-07-31T20:26:17.846Z,2.10
2018-07-31T20:28:47.003Z,2.27
2018-07-31T20:31:16.673Z,2.40
2018-07-31T20:33:45.973Z,2.70
2018-07-31T20:36:15.025Z,2.10
2018-07-31T20:38:44.258Z,2.70
2018-07-31T20:41:13.805Z,2.50
2018-07-31T20:43:42.869Z,2.35
2018-07-31T20:46:12.019Z,3.35
2018-07-31T20:48:42.206Z,2.30
2018-07-31T20:51:11.331Z,2.40
2018-07-31T20:53:40.416Z,2.25
2018-07-31T20:56:11.219Z,2.15
2018-07-31T20:58:40.415Z,2.60
2018-07-31T21:01:09.540Z,2.60
2018-07-31T21:03:38.813Z,2.52
2018-07-31T21:06:07.924Z,2.50
2018-07-31T21:08:37.055Z,2.45
2018-07-31T21:11:06.157Z,2.52
2018-07-31T21:13:35.391Z,2.30
2018-07-31T21:16:04.822Z,2.52
2018-07-31T21:18:34.425Z,2.17
2018-07-31T21:21:03.509Z,2.22
2018-07-31T21:23:32.833Z,2.30
2018-07-31T21:26:01.998Z,1.90
2018-07-31T21:28:31.232Z,2.22
2018-07-31T21:31:00.562Z,2.27
2018-07-31T21:33:29.772Z,2.30
2018-07-31T21:35:58.945Z,2.30
2018-07-31T21:38:28.117Z,2.40
2018-07-31T21:40:57.344Z,2.20
2018-07-31T21:43:26.519Z,2.00
2018-07-31T21:45:55.695Z,2.20
2018-07-31T21:48:24.830Z,2.15
2018-07-31T21:50:54.024Z,2.35
2018-07-31T21:53:23.292Z,2.10
2018-07-31T21:55:52.480Z,2.20
2018-07-31T21:58:21.793Z,2.12
2018-07-31T22:00:55.149Z,2.30
2018-07-31T22:03:24.325Z,2.10
2018-07-31T22:05:53.501Z,2.00
2018-07-31T22:08:22.658Z,2.08
2018-07-31T22:10:51.757Z,2.25
2018-07-31T22:13:21.001Z,2.10
2018-07-31T22:15:50.120Z,2.08
2018-07-31T22:18:19.590Z,2.17
2018-07-31T22:20:48.812Z,2.02
2018-07-31T22:23:18.533Z,2.00
2018-07-31T22:25:47.683Z,2.08
2018-07-31T22:28:16.801Z,2.10
2018-07-31T22:30:45.917Z,2.27
2018-07-31T22:33:15.265Z,2.45
2018-07-31T22:35:44.327Z,2.00
2018-07-31T22:38:13.490Z,2.20
2018-07-31T22:40:42.718Z,2.10
2018-07-31T22:43:11.929Z,2.02
2018-07-31T22:45:41.146Z,1.92
2018-07-31T22:48:10.245Z,2.12
2018-07-31T22:50:39.461Z,2.20
2018-07-31T22:53:08.648Z,1.62
2018-07-31T22:55:37.880Z,2.00
2018-07-31T22:58:07.081Z,2.00
2018-07-31T23:00:36.124Z,1.92
2018-07-31T23:03:05.281Z,2.50
2018-07-31T23:05:34.502Z,2.02
2018-07-31T23:08:03.795Z,2.40
2018-07-31T23:10:33.049Z,1.98
2018-07-31T23:13:02.201Z,1.72
2018-07-31T23:15:31.451Z,2.10
2018-07-31T23:18:00.558Z,1.98
2018-07-31T23:20:29.834Z,2.00
2018-07-31T23:22:59.016Z,2.00
2018-07-31T23:25:28.305Z,2.20
2018-07-31T23:27:57.388Z,2.17
2018-07-31T23:30:26.746Z,1.90
2018-07-31T23:32:56.025Z,2.00
2018-07-31T23:35:25.173Z,2.22
2018-07-31T23:37:54.236Z,2.00
2018-07-31T23:40:23.523Z,1.80
2018-07-31T23:42:52.891Z,1.82
2018-07-31T23:45:22.081Z,2.02
2018-07-31T23:47:51.320Z,2.05
2018-07-31T23:50:20.484Z,2.00
2018-07-31T23:52:49.734Z,1.90
2018-07-31T23:55:18.900Z,2.10
2018-07-31T23:57:48.159Z,2.62
